Time,TemperatureF,DewpointF,PressureIn,WindDirection,WindDirectionDegrees,WindSpeedMPH,WindSpeedGustMPH,Humidity,HourlyPrecipIn,Conditions,Clouds,dailyrainin,SoftwareType,DateUTC
2014-09-20 00:00:00,73.8,72.9,29.95,ENE,61,0.0,1.0,97,0.17,,---,0.00,VWS V15.00,2014-09-20 04:00:00,
2014-09-20 00:01:00,73.7,72.8,29.95,ENE,61,0.0,1.0,97,0.17,,---,0.00,VWS V15.00,2014-09-20 04:01:00,
2014-09-20 00:05:00,73.6,72.7,29.95,ENE,61,1.0,2.0,97,0.14,,---,0.00,VWS V15.00,2014-09-20 04:05:00,
2014-09-20 00:06:00,73.6,72.7,29.95,ENE,61,0.0,2.0,97,0.14,,---,0.00,VWS V15.00,2014-09-20 04:06:00,
2014-09-20 00:07:00,73.7,72.8,29.95,ENE,61,3.0,3.0,97,0.14,,---,0.00,VWS V15.00,2014-09-20 04:07:00,
2014-09-20 00:11:00,73.7,73.1,29.95,ENE,61,1.0,3.0,98,0.11,,---,0.00,VWS V15.00,2014-09-20 04:11:00,
2014-09-20 00:12:00,73.7,73.1,29.95,ENE,61,0.0,3.0,98,0.11,,---,0.00,VWS V15.00,2014-09-20 04:12:00,
2014-09-20 00:16:00,73.7,72.8,29.95,ENE,61,1.0,3.0,97,0.08,,---,0.00,VWS V15.00,2014-09-20 04:16:00,
2014-09-20 00:17:00,73.7,72.8,29.95,ENE,61,3.0,3.0,97,0.08,,---,0.00,VWS V15.00,2014-09-20 04:17:00,
2014-09-20 00:18:00,73.7,73.1,29.95,ENE,61,3.0,3.0,98,0.08,,---,0.00,VWS V15.00,2014-09-20 04:18:00,
2014-09-20 00:22:00,73.7,73.1,29.95,ENE,61,2.0,5.0,98,0.05,,---,0.00,VWS V15.00,2014-09-20 04:22:00,
2014-09-20 00:23:00,73.7,73.1,29.95,ENE,61,4.0,5.0,98,0.05,,---,0.00,VWS V15.00,2014-09-20 04:23:00,
2014-09-20 00:27:00,73.7,73.1,29.95,ENE,61,1.0,4.0,98,0.02,,---,0.00,VWS V15.00,2014-09-20 04:27:00,
2014-09-20 00:28:00,73.8,73.2,29.94,ENE,61,2.0,4.0,98,0.02,,---,0.00,VWS V15.00,2014-09-20 04:28:00,
2014-09-20 00:29:00,73.8,73.2,29.95,ENE,61,2.0,3.0,98,0.01,,---,0.00,VWS V15.00,2014-09-20 04:29:00,
2014-09-20 00:33:00,73.8,73.2,29.95,ENE,61,3.0,3.0,98,0.01,,---,0.00,VWS V15.00,2014-09-20 04:33:00,
2014-09-20 00:34:00,73.8,73.2,29.95,ENE,61,3.0,3.0,98,0.00,,---,0.00,VWS V15.00,2014-09-20 04:34:00,
2014-09-20 00:35:00,73.7,73.1,29.95,ENE,61,2.0,3.0,98,0.00,,---,0.00,VWS V15.00,2014-09-20 04:35:00,
2014-09-20 00:39:00,73.6,72.7,29.95,ENE,61,1.0,2.0,97,0.00,,---,0.00,VWS V15.00,2014-09-20 04:39:00,
2014-09-20 00:41:00,73.6,72.7,29.95,ENE,61,1.0,3.0,97,0.00,,---,0.00,VWS V15.00,2014-09-20 04:41:00,
2014-09-20 00:44:00,73.6,72.7,29.94,ENE,61,3.0,4.0,97,0.00,,---,0.00,VWS V15.00,2014-09-20 04:44:00,
2014-09-20 00:45:00,73.5,72.6,29.94,ENE,61,2.0,4.0,97,0.00,,---,0.00,VWS V15.00,2014-09-20 04:45:00,
2014-09-20 00:46:00,73.6,72.7,29.94,ENE,61,2.0,4.0,97,0.00,,---,0.00,VWS V15.00,2014-09-20 04:46:00,
2014-09-20 00:50:00,73.6,72.7,29.94,ENE,61,1.0,3.0,97,0.00,,---,0.00,VWS V15.00,2014-09-20 04:50:00,
2014-09-20 00:51:00,73.5,72.6,29.94,ENE,61,1.0,3.0,97,0.00,,---,0.00,VWS V15.00,2014-09-20 04:51:00,
2014-09-20 00:52:00,73.5,72.6,29.94,ENE,61,2.0,3.0,97,0.00,,---,0.00,VWS V15.00,2014-09-20 04:52:00,
2014-09-20 00:55:00,73.5,72.6,29.94,ENE,61,2.0,4.0,97,0.00,,---,0.00,VWS V15.00,2014-09-20 04:55:00,
2014-09-20 00:57:00,73.5,72.6,29.94,ENE,61,0.0,4.0,97,0.00,,---,0.00,VWS V15.00,2014-09-20 04:57:00,
2014-09-20 00:58:00,73.5,72.9,29.94,ENE,61,2.0,4.0,98,0.00,,---,0.00,VWS V15.00,2014-09-20 04:58:00,
2014-09-20 01:00:00,73.6,73.0,29.94,ENE,61,3.0,4.0,98,0.00,,---,0.00,VWS V15.00,2014-09-20 05:00:00,
2014-09-20 01:02:00,73.6,73.0,29.94,ENE,61,2.0,4.0,98,0.00,,---,0.00,VWS V15.00,2014-09-20 05:02:00,
2014-09-20 01:03:00,73.6,73.0,29.94,ENE,61,3.0,4.0,98,0.00,,---,0.00,VWS V15.00,2014-09-20 05:03:00,
2014-09-20 01:06:00,73.6,73.0,29.94,ENE,61,2.0,4.0,98,0.00,,---,0.00,VWS V15.00,2014-09-20 05:06:00,
2014-09-20 01:08:00,73.6,73.0,29.94,ENE,61,3.0,4.0,98,0.00,,---,0.00,VWS V15.00,2014-09-20 05:08:00,
2014-09-20 01:12:00,73.6,73.0,29.93,ENE,61,2.0,4.0,98,0.01,,---,0.01,VWS V15.00,2014-09-20 05:12:00,
2014-09-20 01:13:00,73.6,73.0,29.93,ENE,61,3.0,4.0,98,0.01,,---,0.01,VWS V15.00,2014-09-20 05:13:00,
2014-09-20 01:14:00,73.5,72.9,29.93,ENE,61,2.0,3.0,98,0.01,,---,0.01,VWS V15.00,2014-09-20 05:14:00,
2014-09-20 01:18:00,73.5,72.9,29.93,ENE,61,5.0,5.0,98,0.01,,---,0.01,VWS V15.00,2014-09-20 05:18:00,
2014-09-20 01:19:00,73.5,72.9,29.93,ENE,61,3.0,4.0,98,0.02,,---,0.02,VWS V15.00,2014-09-20 05:19:00,
2014-09-20 01:21:00,73.7,73.1,29.93,ENE,61,4.0,7.0,98,0.02,,---,0.02,VWS V15.00,2014-09-20 05:21:00,
2014-09-20 01:23:00,73.8,73.2,29.93,ENE,61,2.0,9.0,98,0.04,,---,0.04,VWS V15.00,2014-09-20 05:23:00,
2014-09-20 01:24:00,73.8,73.2,29.93,ENE,61,11.0,11.0,98,0.04,,---,0.04,VWS V15.00,2014-09-20 05:24:00,
2014-09-20 01:25:00,73.9,73.3,29.93,ENE,61,4.0,11.0,98,0.04,,---,0.04,VWS V15.00,2014-09-20 05:25:00,
2014-09-20 01:28:00,74.0,73.4,29.92,ENE,61,5.0,11.0,98,0.06,,---,0.06,VWS V15.00,2014-09-20 05:28:00,
2014-09-20 01:30:00,74.1,73.5,29.92,ENE,61,5.0,9.0,98,0.07,,---,0.07,VWS V15.00,2014-09-20 05:30:00,
2014-09-20 01:34:00,74.2,73.6,29.92,ENE,61,2.0,4.0,98,0.09,,---,0.09,VWS V15.00,2014-09-20 05:34:00,
2014-09-20 01:35:00,74.2,73.6,29.92,ENE,61,0.0,4.0,98,0.09,,---,0.09,VWS V15.00,2014-09-20 05:35:00,
2014-09-20 01:36:00,74.1,73.5,29.92,ENE,61,0.0,4.0,98,0.10,,---,0.10,VWS V15.00,2014-09-20 05:36:00,
2014-09-20 01:39:00,73.9,73.3,29.92,ENE,61,0.0,4.0,98,0.11,,---,0.11,VWS V15.00,2014-09-20 05:39:00,
2014-09-20 01:40:00,73.9,73.3,29.92,ENE,61,3.0,4.0,98,0.11,,---,0.11,VWS V15.00,2014-09-20 05:40:00,
2014-09-20 01:41:00,73.9,73.3,29.92,ENE,61,7.0,8.0,98,0.12,,---,0.12,VWS V15.00,2014-09-20 05:41:00,
2014-09-20 01:44:00,73.8,73.2,29.91,ENE,61,4.0,4.0,98,0.12,,---,0.12,VWS V15.00,2014-09-20 05:44:00,
2014-09-20 01:45:00,73.7,73.1,29.91,ENE,61,3.0,4.0,98,0.12,,---,0.12,VWS V15.00,2014-09-20 05:45:00,
2014-09-20 01:46:00,73.7,73.1,29.92,ENE,61,4.0,5.0,98,0.13,,---,0.13,VWS V15.00,2014-09-20 05:46:00,
2014-09-20 01:48:00,73.7,73.1,29.91,ENE,61,0.0,5.0,98,0.13,,---,0.13,VWS V15.00,2014-09-20 05:48:00,
2014-09-20 01:50:00,73.7,73.1,29.91,ENE,61,3.0,3.0,98,0.13,,---,0.13,VWS V15.00,2014-09-20 05:50:00,
2014-09-20 01:52:00,73.6,73.0,29.91,ENE,61,0.0,4.0,98,0.13,,---,0.13,VWS V15.00,2014-09-20 05:52:00,
2014-09-20 01:53:00,73.6,73.0,29.91,ENE,61,0.0,4.0,98,0.13,,---,0.13,VWS V15.00,2014-09-20 05:53:00,
2014-09-20 01:56:00,73.6,73.0,29.91,ENE,61,0.0,1.0,98,0.13,,---,0.13,VWS V15.00,2014-09-20 05:56:00,
2014-09-20 01:57:00,73.5,72.9,29.91,ENE,61,0.0,1.0,98,0.13,,---,0.13,VWS V15.00,2014-09-20 05:57:00,
2014-09-20 02:01:00,73.5,72.9,29.91,ENE,61,1.0,4.0,98,0.13,,---,0.13,VWS V15.00,2014-09-20 06:01:00,
2014-09-20 02:02:00,73.4,72.8,29.91,ENE,61,0.0,4.0,98,0.13,,---,0.13,VWS V15.00,2014-09-20 06:02:00,
2014-09-20 02:06:00,73.4,72.8,29.91,ENE,61,0.0,3.0,98,0.13,,---,0.13,VWS V15.00,2014-09-20 06:06:00,
2014-09-20 02:07:00,73.4,72.8,29.91,ENE,61,2.0,3.0,98,0.13,,---,0.13,VWS V15.00,2014-09-20 06:07:00,
2014-09-20 02:09:00,73.4,72.8,29.91,ENE,61,4.0,4.0,98,0.13,,---,0.13,VWS V15.00,2014-09-20 06:09:00,
2014-09-20 02:12:00,73.5,72.9,29.91,ENE,61,0.0,4.0,98,0.13,,---,0.13,VWS V15.00,2014-09-20 06:12:00,
2014-09-20 02:13:00,73.5,72.9,29.91,ENE,61,0.0,4.0,98,0.13,,---,0.13,VWS V15.00,2014-09-20 06:13:00,
2014-09-20 02:14:00,73.5,72.9,29.91,ENE,61,0.0,0.0,98,0.12,,---,0.13,VWS V15.00,2014-09-20 06:14:00,
2014-09-20 02:18:00,73.5,72.9,29.91,ENE,61,0.0,1.0,98,0.13,,---,0.14,VWS V15.00,2014-09-20 06:18:00,
2014-09-20 02:19:00,73.5,72.9,29.91,ENE,61,0.0,1.0,98,0.12,,---,0.14,VWS V15.00,2014-09-20 06:19:00,
2014-09-20 02:20:00,73.5,72.9,29.91,ENE,61,0.0,2.0,98,0.12,,---,0.14,VWS V15.00,2014-09-20 06:20:00,
2014-09-20 02:23:00,73.5,72.9,29.91,ENE,61,0.0,2.0,98,0.12,,---,0.14,VWS V15.00,2014-09-20 06:23:00,
2014-09-20 02:24:00,73.5,72.9,29.91,ENE,61,0.0,0.0,98,0.10,,---,0.14,VWS V15.00,2014-09-20 06:24:00,
2014-09-20 02:25:00,73.5,72.9,29.91,ENE,61,0.0,0.0,98,0.10,,---,0.14,VWS V15.00,2014-09-20 06:25:00,
2014-09-20 02:28:00,73.5,72.9,29.90,ENE,61,0.0,0.0,98,0.10,,---,0.14,VWS V15.00,2014-09-20 06:28:00,
2014-09-20 02:29:00,73.5,72.9,29.90,ENE,61,0.0,0.0,98,0.08,,---,0.14,VWS V15.00,2014-09-20 06:29:00,
2014-09-20 02:30:00,73.6,73.0,29.90,ENE,61,0.0,0.0,98,0.08,,---,0.14,VWS V15.00,2014-09-20 06:30:00,
2014-09-20 02:31:00,73.6,73.0,29.90,ENE,61,0.0,0.0,98,0.08,,---,0.14,VWS V15.00,2014-09-20 06:31:00,
2014-09-20 02:34:00,73.6,73.0,29.90,ENE,61,1.0,1.0,98,0.05,,---,0.14,VWS V15.00,2014-09-20 06:34:00,
2014-09-20 02:35:00,73.6,73.0,29.90,ENE,61,0.0,1.0,98,0.05,,---,0.14,VWS V15.00,2014-09-20 06:35:00,
2014-09-20 02:36:00,73.6,73.0,29.90,ENE,61,0.0,1.0,98,0.05,,---,0.14,VWS V15.00,2014-09-20 06:36:00,
2014-09-20 02:37:00,73.6,73.0,29.90,ENE,61,1.0,1.0,98,0.05,,---,0.14,VWS V15.00,2014-09-20 06:37:00,
2014-09-20 02:40:00,73.7,73.1,29.90,ENE,61,0.0,0.0,98,0.03,,---,0.14,VWS V15.00,2014-09-20 06:40:00,
2014-09-20 02:42:00,73.7,73.1,29.90,ENE,61,0.0,0.0,98,0.03,,---,0.14,VWS V15.00,2014-09-20 06:42:00,
2014-09-20 02:45:00,73.7,73.1,29.90,ENE,61,0.0,0.0,98,0.03,,---,0.15,VWS V15.00,2014-09-20 06:45:00,
2014-09-20 02:46:00,73.7,73.1,29.90,ENE,61,0.0,0.0,98,0.03,,---,0.15,VWS V15.00,2014-09-20 06:46:00,
2014-09-20 02:47:00,73.7,73.1,29.90,ENE,61,0.0,0.0,98,0.03,,---,0.15,VWS V15.00,2014-09-20 06:47:00,
2014-09-20 02:48:00,73.7,73.1,29.90,ENE,61,0.0,0.0,98,0.03,,---,0.15,VWS V15.00,2014-09-20 06:48:00,
2014-09-20 02:50:00,73.7,73.1,29.90,ENE,61,0.0,0.0,98,0.02,,---,0.15,VWS V15.00,2014-09-20 06:50:00,
2014-09-20 02:51:00,73.7,73.1,29.90,ENE,61,0.0,0.0,98,0.02,,---,0.15,VWS V15.00,2014-09-20 06:51:00,
2014-09-20 02:52:00,73.8,73.2,29.90,ENE,61,0.0,0.0,98,0.02,,---,0.15,VWS V15.00,2014-09-20 06:52:00,
2014-09-20 02:54:00,73.8,73.2,29.90,ENE,61,0.0,0.0,98,0.02,,---,0.15,VWS V15.00,2014-09-20 06:54:00,
2014-09-20 02:57:00,73.7,73.1,29.90,ENE,61,0.0,0.0,98,0.03,,---,0.16,VWS V15.00,2014-09-20 06:57:00,
2014-09-20 02:58:00,73.7,73.1,29.90,ENE,61,0.0,0.0,98,0.03,,---,0.16,VWS V15.00,2014-09-20 06:58:00,
2014-09-20 02:59:00,73.7,73.1,29.90,ENE,61,0.0,1.0,98,0.03,,---,0.16,VWS V15.00,2014-09-20 06:59:00,
2014-09-20 03:02:00,73.7,73.1,29.90,ENE,61,0.0,1.0,98,0.03,,---,0.16,VWS V15.00,2014-09-20 07:02:00,
2014-09-20 03:03:00,73.8,73.2,29.90,ENE,61,0.0,1.0,98,0.03,,---,0.16,VWS V15.00,2014-09-20 07:03:00,
2014-09-20 03:05:00,73.8,73.2,29.90,ENE,61,0.0,1.0,98,0.04,,---,0.17,VWS V15.00,2014-09-20 07:05:00,
2014-09-20 03:07:00,73.8,73.2,29.90,ENE,61,1.0,2.0,98,0.05,,---,0.18,VWS V15.00,2014-09-20 07:07:00,
2014-09-20 03:08:00,73.8,73.2,29.90,ENE,61,2.0,2.0,98,0.05,,---,0.18,VWS V15.00,2014-09-20 07:08:00,
2014-09-20 03:10:00,73.8,73.2,29.90,ENE,61,1.0,1.0,98,0.05,,---,0.18,VWS V15.00,2014-09-20 07:10:00,
2014-09-20 03:12:00,73.9,73.3,29.90,ENE,61,0.0,2.0,98,0.07,,---,0.20,VWS V15.00,2014-09-20 07:12:00,
2014-09-20 03:13:00,73.9,73.3,29.90,ENE,61,0.0,2.0,98,0.07,,---,0.20,VWS V15.00,2014-09-20 07:13:00,
2014-09-20 03:17:00,74.0,73.4,29.89,ENE,61,0.0,1.0,98,0.09,,---,0.22,VWS V15.00,2014-09-20 07:17:00,
2014-09-20 03:18:00,74.0,73.4,29.89,ENE,61,0.0,1.0,98,0.09,,---,0.22,VWS V15.00,2014-09-20 07:18:00,
2014-09-20 03:23:00,74.0,73.4,29.89,ENE,61,1.0,2.0,98,0.10,,---,0.24,VWS V15.00,2014-09-20 07:23:00,
2014-09-20 03:24:00,74.1,73.5,29.89,ENE,61,2.0,3.0,98,0.11,,---,0.25,VWS V15.00,2014-09-20 07:24:00,
2014-09-20 03:28:00,74.1,73.5,29.88,ENE,61,1.0,3.0,98,0.13,,---,0.27,VWS V15.00,2014-09-20 07:28:00,
2014-09-20 03:29:00,74.0,73.4,29.88,ENE,61,1.0,1.0,98,0.13,,---,0.27,VWS V15.00,2014-09-20 07:29:00,
2014-09-20 03:30:00,73.9,73.3,29.88,ENE,78,2.0,8.0,98,0.14,,---,0.28,VWS V15.00,2014-09-20 07:30:00,
2014-09-20 03:34:00,73.3,72.7,29.88,ENE,78,4.0,5.0,98,0.14,,---,0.28,VWS V15.00,2014-09-20 07:34:00,
2014-09-20 03:35:00,73.2,72.6,29.88,ENE,78,0.0,5.0,98,0.14,,---,0.28,VWS V15.00,2014-09-20 07:35:00,
2014-09-20 03:36:00,73.2,72.6,29.88,ENE,78,0.0,5.0,98,0.14,,---,0.28,VWS V15.00,2014-09-20 07:36:00,
2014-09-20 03:37:00,73.1,72.5,29.88,ENE,78,0.0,5.0,98,0.14,,---,0.28,VWS V15.00,2014-09-20 07:37:00,
2014-09-20 03:40:00,73.1,72.5,29.88,ENE,78,0.0,3.0,98,0.14,,---,0.28,VWS V15.00,2014-09-20 07:40:00,
2014-09-20 03:41:00,73.0,72.4,29.88,East,79,7.0,7.0,98,0.14,,---,0.28,VWS V15.00,2014-09-20 07:41:00,
2014-09-20 03:43:00,72.9,72.3,29.88,SSE,156,6.0,7.0,98,0.14,,---,0.28,VWS V15.00,2014-09-20 07:43:00,
2014-09-20 03:45:00,72.8,72.2,29.88,SSE,156,1.0,5.0,98,0.14,,---,0.28,VWS V15.00,2014-09-20 07:45:00,
2014-09-20 03:46:00,72.8,72.2,29.88,SSE,156,2.0,5.0,98,0.14,,---,0.28,VWS V15.00,2014-09-20 07:46:00,
2014-09-20 03:47:00,72.8,72.2,29.88,SSE,156,3.0,5.0,98,0.14,,---,0.28,VWS V15.00,2014-09-20 07:47:00,
2014-09-20 03:48:00,72.8,72.2,29.88,SSE,156,4.0,5.0,98,0.14,,---,0.28,VWS V15.00,2014-09-20 07:48:00,
2014-09-20 03:50:00,72.8,72.2,29.88,SSE,156,1.0,4.0,98,0.13,,---,0.28,VWS V15.00,2014-09-20 07:50:00,
2014-09-20 03:51:00,72.9,72.3,29.87,SSE,156,0.0,4.0,98,0.13,,---,0.28,VWS V15.00,2014-09-20 07:51:00,
2014-09-20 03:52:00,72.9,72.3,29.88,SSE,156,0.0,4.0,98,0.13,,---,0.28,VWS V15.00,2014-09-20 07:52:00,
2014-09-20 03:53:00,72.9,72.3,29.87,SSE,156,0.0,4.0,98,0.13,,---,0.28,VWS V15.00,2014-09-20 07:53:00,
2014-09-20 03:55:00,73.0,72.4,29.87,SSE,156,1.0,4.0,98,0.13,,---,0.28,VWS V15.00,2014-09-20 07:55:00,
2014-09-20 03:57:00,73.1,72.5,29.87,SSE,156,3.0,4.0,98,0.13,,---,0.28,VWS V15.00,2014-09-20 07:57:00,
2014-09-20 03:58:00,73.1,72.5,29.87,SSE,156,0.0,4.0,98,0.13,,---,0.28,VWS V15.00,2014-09-20 07:58:00,
2014-09-20 04:01:00,73.2,72.6,29.88,SSE,156,2.0,3.0,98,0.12,,---,0.28,VWS V15.00,2014-09-20 08:01:00,
2014-09-20 04:02:00,73.2,72.6,29.87,SSE,156,1.0,3.0,98,0.12,,---,0.28,VWS V15.00,2014-09-20 08:02:00,
2014-09-20 04:03:00,73.2,72.6,29.87,SSE,156,0.0,3.0,98,0.12,,---,0.28,VWS V15.00,2014-09-20 08:03:00,
2014-09-20 04:07:00,73.3,72.7,29.88,SSE,156,0.0,3.0,98,0.12,,---,0.28,VWS V15.00,2014-09-20 08:07:00,
2014-09-20 04:08:00,73.3,72.7,29.88,SSE,156,0.0,3.0,98,0.12,,---,0.28,VWS V15.00,2014-09-20 08:08:00,
2014-09-20 04:09:00,73.3,72.7,29.88,SSE,156,0.0,0.0,98,0.10,,---,0.28,VWS V15.00,2014-09-20 08:09:00,
2014-09-20 04:12:00,73.4,72.8,29.88,SSE,156,0.0,2.0,98,0.10,,---,0.28,VWS V15.00,2014-09-20 08:12:00,
2014-09-20 04:13:00,73.4,72.8,29.88,SSE,156,0.0,2.0,98,0.10,,---,0.28,VWS V15.00,2014-09-20 08:13:00,
2014-09-20 04:14:00,73.4,72.8,29.88,SSE,156,0.0,0.0,98,0.08,,---,0.28,VWS V15.00,2014-09-20 08:14:00,
2014-09-20 04:18:00,73.5,72.9,29.88,SSE,156,0.0,0.0,98,0.08,,---,0.28,VWS V15.00,2014-09-20 08:18:00,
2014-09-20 04:20:00,73.5,72.9,29.88,SSE,156,0.0,0.0,98,0.06,,---,0.28,VWS V15.00,2014-09-20 08:20:00,
2014-09-20 04:24:00,73.6,73.0,29.88,SSE,156,0.0,0.0,98,0.04,,---,0.28,VWS V15.00,2014-09-20 08:24:00,
2014-09-20 04:25:00,73.6,73.0,29.88,SSE,156,0.0,0.0,98,0.04,,---,0.28,VWS V15.00,2014-09-20 08:25:00,
2014-09-20 04:26:00,73.7,73.1,29.88,SSE,156,0.0,0.0,98,0.04,,---,0.28,VWS V15.00,2014-09-20 08:26:00,
2014-09-20 04:27:00,73.7,73.1,29.88,SSE,156,0.0,0.0,98,0.04,,---,0.28,VWS V15.00,2014-09-20 08:27:00,
2014-09-20 04:29:00,73.7,73.1,29.88,SSE,156,0.0,0.0,98,0.01,,---,0.28,VWS V15.00,2014-09-20 08:29:00,
2014-09-20 04:31:00,73.7,73.1,29.88,SSE,156,0.0,0.0,98,0.01,,---,0.28,VWS V15.00,2014-09-20 08:31:00,
2014-09-20 04:32:00,73.7,73.1,29.88,SSE,156,0.0,0.0,98,0.01,,---,0.28,VWS V15.00,2014-09-20 08:32:00,
2014-09-20 04:34:00,73.7,73.1,29.87,SSE,156,0.0,0.0,98,0.00,,---,0.28,VWS V15.00,2014-09-20 08:34:00,
2014-09-20 04:36:00,73.7,73.1,29.87,SSE,156,0.0,0.0,98,0.00,,---,0.28,VWS V15.00,2014-09-20 08:36:00,
2014-09-20 04:38:00,73.6,73.0,29.87,SSE,156,0.0,0.0,98,0.00,,---,0.28,VWS V15.00,2014-09-20 08:38:00,
2014-09-20 04:40:00,73.6,73.0,29.87,SSE,156,0.0,0.0,98,0.00,,---,0.28,VWS V15.00,2014-09-20 08:40:00,
2014-09-20 04:42:00,73.6,73.0,29.87,SSE,156,0.0,0.0,98,0.00,,---,0.28,VWS V15.00,2014-09-20 08:42:00,
2014-09-20 04:44:00,73.6,73.0,29.87,SSE,156,0.0,0.0,98,0.00,,---,0.28,VWS V15.00,2014-09-20 08:44:00,
2014-09-20 04:45:00,73.6,73.0,29.87,SSE,156,0.0,0.0,98,0.00,,---,0.28,VWS V15.00,2014-09-20 08:45:00,
2014-09-20 04:46:00,73.6,73.0,29.87,SSE,156,0.0,0.0,98,0.00,,---,0.28,VWS V15.00,2014-09-20 08:46:00,
2014-09-20 04:47:00,73.6,73.0,29.87,SSE,156,0.0,0.0,98,0.00,,---,0.28,VWS V15.00,2014-09-20 08:47:00,
2014-09-20 04:50:00,73.6,73.0,29.87,SSE,156,0.0,0.0,98,0.00,,---,0.28,VWS V15.00,2014-09-20 08:50:00,
2014-09-20 04:51:00,73.6,73.0,29.87,SSE,156,0.0,0.0,98,0.00,,---,0.28,VWS V15.00,2014-09-20 08:51:00,
2014-09-20 04:52:00,73.6,73.0,29.87,SSE,156,0.0,0.0,98,0.00,,---,0.28,VWS V15.00,2014-09-20 08:52:00,
2014-09-20 04:56:00,73.5,72.9,29.87,SSE,156,0.0,1.0,98,0.00,,---,0.28,VWS V15.00,2014-09-20 08:56:00,
2014-09-20 04:57:00,73.6,73.0,29.87,SSE,156,0.0,1.0,98,0.00,,---,0.28,VWS V15.00,2014-09-20 08:57:00,
2014-09-20 04:58:00,73.5,72.9,29.87,SSE,156,0.0,1.0,98,0.00,,---,0.28,VWS V15.00,2014-09-20 08:58:00,
2014-09-20 05:01:00,73.5,72.9,29.88,SSE,156,0.0,0.0,98,0.00,,---,0.28,VWS V15.00,2014-09-20 09:01:00,
2014-09-20 05:02:00,73.5,72.9,29.87,SSE,156,0.0,0.0,98,0.00,,---,0.28,VWS V15.00,2014-09-20 09:02:00,
2014-09-20 05:03:00,73.5,72.9,29.87,SSE,156,0.0,1.0,98,0.00,,---,0.28,VWS V15.00,2014-09-20 09:03:00,
2014-09-20 05:07:00,73.6,73.0,29.87,SSE,156,0.0,0.0,98,0.00,,---,0.28,VWS V15.00,2014-09-20 09:07:00,
2014-09-20 05:08:00,73.6,73.0,29.87,SSE,156,0.0,0.0,98,0.00,,---,0.28,VWS V15.00,2014-09-20 09:08:00,
2014-09-20 05:12:00,73.6,73.0,29.87,SSE,156,0.0,1.0,98,0.00,,---,0.28,VWS V15.00,2014-09-20 09:12:00,
2014-09-20 05:13:00,73.6,73.0,29.87,SSE,156,0.0,1.0,98,0.00,,---,0.28,VWS V15.00,2014-09-20 09:13:00,
2014-09-20 05:14:00,73.6,73.0,29.88,SSE,156,1.0,1.0,98,0.00,,---,0.28,VWS V15.00,2014-09-20 09:14:00,
2014-09-20 05:15:00,73.6,73.0,29.88,SSE,156,1.0,3.0,98,0.00,,---,0.28,VWS V15.00,2014-09-20 09:15:00,
2014-09-20 05:17:00,73.8,73.2,29.88,SSE,156,3.0,4.0,98,0.00,,---,0.28,VWS V15.00,2014-09-20 09:17:00,
2014-09-20 05:19:00,73.9,73.3,29.88,SSE,156,3.0,4.0,98,0.00,,---,0.28,VWS V15.00,2014-09-20 09:19:00,
2014-09-20 05:20:00,74.0,73.4,29.88,SSE,156,3.0,4.0,98,0.01,,---,0.29,VWS V15.00,2014-09-20 09:20:00,
2014-09-20 05:22:00,74.2,73.6,29.88,SSE,156,4.0,5.0,98,0.01,,---,0.29,VWS V15.00,2014-09-20 09:22:00,
2014-09-20 05:24:00,74.3,73.4,29.88,SSE,156,2.0,7.0,97,0.01,,---,0.29,VWS V15.00,2014-09-20 09:24:00,
2014-09-20 05:25:00,74.4,73.5,29.87,SSE,156,3.0,7.0,97,0.01,,---,0.29,VWS V15.00,2014-09-20 09:25:00,
2014-09-20 05:26:00,74.5,73.6,29.87,SSE,156,5.0,7.0,97,0.01,,---,0.29,VWS V15.00,2014-09-20 09:26:00,
2014-09-20 05:27:00,74.6,73.7,29.87,SSE,156,5.0,7.0,97,0.01,,---,0.29,VWS V15.00,2014-09-20 09:27:00,
2014-09-20 05:30:00,74.8,73.6,29.87,SSE,159,6.0,6.0,96,0.01,,---,0.29,VWS V15.00,2014-09-20 09:30:00,
2014-09-20 05:31:00,74.9,73.7,29.87,South,181,4.0,8.0,96,0.01,,---,0.29,VWS V15.00,2014-09-20 09:31:00,
2014-09-20 05:32:00,75.0,73.8,29.87,South,181,6.0,8.0,96,0.01,,---,0.29,VWS V15.00,2014-09-20 09:32:00,
2014-09-20 05:33:00,75.1,73.6,29.87,South,181,4.0,8.0,95,0.01,,---,0.29,VWS V15.00,2014-09-20 09:33:00,
2014-09-20 05:36:00,75.3,73.8,29.87,South,181,1.0,7.0,95,0.01,,---,0.29,VWS V15.00,2014-09-20 09:36:00,
2014-09-20 05:37:00,75.4,73.9,29.87,South,181,4.0,7.0,95,0.01,,---,0.29,VWS V15.00,2014-09-20 09:37:00,
2014-09-20 05:38:00,75.5,73.7,29.88,South,181,6.0,7.0,94,0.01,,---,0.29,VWS V15.00,2014-09-20 09:38:00,
2014-09-20 05:41:00,75.7,73.8,29.88,South,181,0.0,7.0,94,0.01,,---,0.29,VWS V15.00,2014-09-20 09:41:00,
2014-09-20 05:42:00,75.8,73.9,29.87,South,181,2.0,9.0,94,0.01,,---,0.29,VWS V15.00,2014-09-20 09:42:00,
2014-09-20 05:44:00,76.0,73.8,29.88,South,181,2.0,5.0,93,0.01,,---,0.29,VWS V15.00,2014-09-20 09:44:00,
2014-09-20 05:46:00,76.0,73.8,29.88,South,181,0.0,5.0,93,0.01,,---,0.29,VWS V15.00,2014-09-20 09:46:00,
2014-09-20 05:49:00,76.0,73.8,29.88,South,181,0.0,3.0,93,0.01,,---,0.29,VWS V15.00,2014-09-20 09:49:00,
2014-09-20 05:50:00,76.0,73.8,29.88,South,181,0.0,3.0,93,0.01,,---,0.29,VWS V15.00,2014-09-20 09:50:00,
2014-09-20 05:52:00,75.9,74.1,29.88,South,181,4.0,4.0,94,0.01,,---,0.29,VWS V15.00,2014-09-20 09:52:00,
2014-09-20 05:53:00,75.9,74.1,29.88,South,181,0.0,4.0,94,0.01,,---,0.29,VWS V15.00,2014-09-20 09:53:00,
2014-09-20 05:55:00,75.7,73.8,29.88,South,181,0.0,1.0,94,0.01,,---,0.29,VWS V15.00,2014-09-20 09:55:00,
2014-09-20 05:56:00,75.7,73.8,29.88,South,181,0.0,1.0,94,0.01,,---,0.29,VWS V15.00,2014-09-20 09:56:00,
2014-09-20 05:58:00,75.7,73.8,29.88,South,181,1.0,2.0,94,0.01,,---,0.29,VWS V15.00,2014-09-20 09:58:00,
2014-09-20 06:01:00,75.6,73.8,29.88,South,181,0.0,4.0,94,0.01,,---,0.29,VWS V15.00,2014-09-20 10:01:00,
2014-09-20 06:03:00,75.5,74.0,29.88,South,181,1.0,4.0,95,0.01,,---,0.29,VWS V15.00,2014-09-20 10:03:00,
2014-09-20 06:06:00,75.5,74.0,29.88,South,181,0.0,4.0,95,0.01,,---,0.29,VWS V15.00,2014-09-20 10:06:00,
2014-09-20 06:08:00,75.5,74.0,29.88,South,181,2.0,4.0,95,0.01,,---,0.29,VWS V15.00,2014-09-20 10:08:00,
2014-09-20 06:11:00,75.4,73.9,29.88,South,181,5.0,6.0,95,0.01,,---,0.29,VWS V15.00,2014-09-20 10:11:00,
2014-09-20 06:14:00,75.5,74.0,29.88,South,181,0.0,1.0,95,0.01,,---,0.29,VWS V15.00,2014-09-20 10:14:00,
2014-09-20 06:15:00,75.6,74.1,29.88,South,181,3.0,5.0,95,0.01,,---,0.29,VWS V15.00,2014-09-20 10:15:00,
2014-09-20 06:17:00,75.8,74.3,29.88,South,186,1.0,8.0,95,0.01,,---,0.29,VWS V15.00,2014-09-20 10:17:00,
2014-09-20 06:19:00,76.0,74.2,29.88,South,186,2.0,4.0,94,0.01,,---,0.29,VWS V15.00,2014-09-20 10:19:00,
2014-09-20 06:20:00,76.2,74.3,29.88,South,186,1.0,4.0,94,0.01,,---,0.29,VWS V15.00,2014-09-20 10:20:00,
2014-09-20 06:21:00,76.2,74.3,29.88,South,186,0.0,4.0,94,0.01,,---,0.29,VWS V15.00,2014-09-20 10:21:00,
2014-09-20 06:22:00,76.3,74.4,29.88,South,186,3.0,5.0,94,0.01,,---,0.29,VWS V15.00,2014-09-20 10:22:00,
2014-09-20 06:24:00,76.4,74.6,29.88,South,186,2.0,4.0,94,0.00,,---,0.29,VWS V15.00,2014-09-20 10:24:00,
2014-09-20 06:26:00,76.5,74.3,29.88,South,186,4.0,6.0,93,0.00,,---,0.29,VWS V15.00,2014-09-20 10:26:00,
2014-09-20 06:28:00,76.6,74.4,29.88,South,186,0.0,6.0,93,0.00,,---,0.29,VWS V15.00,2014-09-20 10:28:00,
2014-09-20 06:29:00,76.7,74.2,29.88,South,186,4.0,4.0,92,0.00,,---,0.29,VWS V15.00,2014-09-20 10:29:00,
2014-09-20 06:31:00,76.7,74.2,29.88,South,186,5.0,5.0,92,0.00,,---,0.29,VWS V15.00,2014-09-20 10:31:00,
2014-09-20 06:33:00,76.8,74.0,29.88,South,186,3.0,5.0,91,0.00,,---,0.29,VWS V15.00,2014-09-20 10:33:00,
2014-09-20 06:36:00,76.9,73.8,29.88,South,187,5.0,7.0,90,0.00,,---,0.29,VWS V15.00,2014-09-20 10:36:00,
2014-09-20 06:37:00,77.0,73.8,29.88,South,187,4.0,7.0,90,0.00,,---,0.29,VWS V15.00,2014-09-20 10:37:00,
2014-09-20 06:38:00,77.1,73.9,29.88,South,187,3.0,8.0,90,0.00,,---,0.29,VWS V15.00,2014-09-20 10:38:00,
2014-09-20 06:39:00,77.1,73.9,29.88,South,187,3.0,6.0,90,0.00,,---,0.29,VWS V15.00,2014-09-20 10:39:00,
2014-09-20 06:42:00,77.2,74.0,29.88,South,187,2.0,6.0,90,0.00,,---,0.29,VWS V15.00,2014-09-20 10:42:00,
2014-09-20 06:43:00,77.3,73.8,29.88,SSW,199,3.0,8.0,89,0.00,,---,0.29,VWS V15.00,2014-09-20 10:43:00,
2014-09-20 06:45:00,77.4,73.9,29.88,SSW,199,2.0,5.0,89,0.00,,---,0.29,VWS V15.00,2014-09-20 10:45:00,
2014-09-20 06:47:00,77.4,73.9,29.88,SSW,199,3.0,5.0,89,0.00,,---,0.29,VWS V15.00,2014-09-20 10:47:00,
2014-09-20 06:48:00,77.4,73.9,29.88,SSW,199,2.0,5.0,89,0.00,,---,0.29,VWS V15.00,2014-09-20 10:48:00,
2014-09-20 06:49:00,77.4,73.9,29.89,SSW,199,7.0,7.0,89,0.00,,---,0.29,VWS V15.00,2014-09-20 10:49:00,
2014-09-20 06:50:00,77.5,74.0,29.89,SSW,199,5.0,7.0,89,0.00,,---,0.29,VWS V15.00,2014-09-20 10:50:00,
2014-09-20 06:53:00,77.5,74.0,29.88,SSW,199,0.0,7.0,89,0.00,,---,0.29,VWS V15.00,2014-09-20 10:53:00,
2014-09-20 06:54:00,77.5,74.0,29.89,SSW,199,1.0,4.0,89,0.00,,---,0.29,VWS V15.00,2014-09-20 10:54:00,
2014-09-20 06:56:00,77.5,74.0,29.89,SSW,199,1.0,4.0,89,0.00,,---,0.29,VWS V15.00,2014-09-20 10:56:00,
2014-09-20 06:58:00,77.6,74.1,29.89,SSW,199,4.0,5.0,89,0.00,,---,0.29,VWS V15.00,2014-09-20 10:58:00,
2014-09-20 06:59:00,77.6,74.1,29.89,SSW,199,1.0,5.0,89,0.00,,---,0.29,VWS V15.00,2014-09-20 10:59:00,
2014-09-20 07:01:00,77.5,74.0,29.89,SSW,199,3.0,5.0,89,0.00,,---,0.29,VWS V15.00,2014-09-20 11:01:00,
2014-09-20 07:03:00,77.5,74.0,29.89,SSW,199,2.0,5.0,89,0.00,,---,0.29,VWS V15.00,2014-09-20 11:03:00,
2014-09-20 07:05:00,77.5,74.0,29.89,SSW,199,0.0,1.0,89,0.00,,---,0.29,VWS V15.00,2014-09-20 11:05:00,
2014-09-20 07:08:00,77.5,74.3,29.89,SSW,199,0.0,3.0,90,0.00,,---,0.29,VWS V15.00,2014-09-20 11:08:00,
2014-09-20 07:09:00,77.5,74.3,29.89,SSW,199,0.0,0.0,90,0.00,,---,0.29,VWS V15.00,2014-09-20 11:09:00,
2014-09-20 07:10:00,77.5,74.3,29.89,SSW,199,2.0,7.0,90,0.00,,---,0.29,VWS V15.00,2014-09-20 11:10:00,
2014-09-20 07:13:00,77.5,74.3,29.89,SSW,199,0.0,1.0,90,0.00,,---,0.29,VWS V15.00,2014-09-20 11:13:00,
2014-09-20 07:14:00,77.5,74.3,29.89,SSW,199,1.0,1.0,90,0.00,,---,0.29,VWS V15.00,2014-09-20 11:14:00,
2014-09-20 07:16:00,77.6,74.4,29.89,SSW,199,1.0,4.0,90,0.00,,---,0.29,VWS V15.00,2014-09-20 11:16:00,
2014-09-20 07:19:00,77.6,74.4,29.89,SSW,211,2.0,3.0,90,0.00,,---,0.29,VWS V15.00,2014-09-20 11:19:00,
2014-09-20 07:21:00,77.6,74.4,29.89,SSW,211,1.0,6.0,90,0.00,,---,0.29,VWS V15.00,2014-09-20 11:21:00,
2014-09-20 07:24:00,77.6,74.4,29.90,SSW,211,3.0,5.0,90,0.00,,---,0.29,VWS V15.00,2014-09-20 11:24:00,
2014-09-20 07:26:00,77.7,74.5,29.90,SSW,211,2.0,7.0,90,0.00,,---,0.29,VWS V15.00,2014-09-20 11:26:00,
2014-09-20 07:27:00,77.7,74.5,29.90,SSW,211,1.0,7.0,90,0.00,,---,0.29,VWS V15.00,2014-09-20 11:27:00,
2014-09-20 07:30:00,77.7,74.5,29.90,SSW,211,2.0,7.0,90,0.00,,---,0.29,VWS V15.00,2014-09-20 11:30:00,
2014-09-20 07:31:00,77.7,74.5,29.90,SSW,211,2.0,7.0,90,0.00,,---,0.29,VWS V15.00,2014-09-20 11:31:00,
2014-09-20 07:32:00,77.7,74.5,29.90,SSW,211,2.0,7.0,90,0.00,,---,0.29,VWS V15.00,2014-09-20 11:32:00,
2014-09-20 07:33:00,77.7,74.5,29.90,SSW,211,3.0,7.0,90,0.00,,---,0.29,VWS V15.00,2014-09-20 11:33:00,
2014-09-20 07:35:00,77.6,74.4,29.90,SSW,212,6.0,8.0,90,0.00,,---,0.29,VWS V15.00,2014-09-20 11:35:00,
2014-09-20 07:36:00,77.6,74.4,29.90,SSW,212,4.0,8.0,90,0.00,,---,0.29,VWS V15.00,2014-09-20 11:36:00,
2014-09-20 07:37:00,77.6,74.4,29.90,SW,219,6.0,9.0,90,0.00,,---,0.29,VWS V15.00,2014-09-20 11:37:00,
2014-09-20 07:38:00,77.6,74.4,29.90,SW,219,2.0,9.0,90,0.00,,---,0.29,VWS V15.00,2014-09-20 11:38:00,
2014-09-20 07:41:00,77.6,74.4,29.90,SW,219,0.0,7.0,90,0.00,,---,0.29,VWS V15.00,2014-09-20 11:41:00,
2014-09-20 07:43:00,77.6,74.4,29.90,SW,219,2.0,7.0,90,0.00,,---,0.29,VWS V15.00,2014-09-20 11:43:00,
2014-09-20 07:46:00,77.6,74.4,29.90,SW,219,4.0,5.0,90,0.00,,---,0.29,VWS V15.00,2014-09-20 11:46:00,
2014-09-20 07:47:00,77.6,74.4,29.90,SW,219,2.0,6.0,90,0.00,,---,0.29,VWS V15.00,2014-09-20 11:47:00,
2014-09-20 07:48:00,77.6,74.4,29.90,SW,219,0.0,7.0,90,0.00,,---,0.29,VWS V15.00,2014-09-20 11:48:00,
2014-09-20 07:52:00,77.6,74.1,29.90,SW,219,3.0,7.0,89,0.00,,---,0.29,VWS V15.00,2014-09-20 11:52:00,
2014-09-20 07:53:00,77.7,74.2,29.90,SW,219,3.0,7.0,89,0.00,,---,0.29,VWS V15.00,2014-09-20 11:53:00,
2014-09-20 07:55:00,77.7,74.2,29.90,SW,219,3.0,5.0,89,0.00,,---,0.29,VWS V15.00,2014-09-20 11:55:00,
2014-09-20 07:57:00,77.8,74.3,29.90,SW,219,3.0,5.0,89,0.00,,---,0.29,VWS V15.00,2014-09-20 11:57:00,
2014-09-20 07:58:00,77.8,74.3,29.90,SW,219,3.0,5.0,89,0.00,,---,0.29,VWS V15.00,2014-09-20 11:58:00,
2014-09-20 08:00:00,77.8,74.3,29.90,SW,219,2.0,4.0,89,0.00,,---,0.29,VWS V15.00,2014-09-20 12:00:00,
2014-09-20 08:02:00,77.9,74.4,29.90,SW,219,0.0,4.0,89,0.00,,---,0.29,VWS V15.00,2014-09-20 12:02:00,
2014-09-20 08:03:00,77.9,74.4,29.90,SW,219,3.0,5.0,89,0.00,,---,0.29,VWS V15.00,2014-09-20 12:03:00,
2014-09-20 08:04:00,77.9,74.4,29.90,SW,219,1.0,5.0,89,0.00,,---,0.29,VWS V15.00,2014-09-20 12:04:00,
2014-09-20 08:06:00,78.0,74.5,29.90,SW,219,1.0,5.0,89,0.00,,---,0.29,VWS V15.00,2014-09-20 12:06:00,
2014-09-20 08:08:00,77.9,74.4,29.90,SW,223,5.0,8.0,89,0.00,,---,0.29,VWS V15.00,2014-09-20 12:08:00,
2014-09-20 08:10:00,78.0,74.5,29.90,SW,223,4.0,7.0,89,0.00,,---,0.29,VWS V15.00,2014-09-20 12:10:00,
2014-09-20 08:13:00,78.1,74.6,29.90,WSW,252,4.0,10.0,89,0.00,,---,0.29,VWS V15.00,2014-09-20 12:13:00,
2014-09-20 08:16:00,78.1,74.6,29.90,WSW,254,2.0,8.0,89,0.00,,---,0.29,VWS V15.00,2014-09-20 12:16:00,
2014-09-20 08:18:00,78.1,74.6,29.90,WSW,254,4.0,8.0,89,0.00,,---,0.29,VWS V15.00,2014-09-20 12:18:00,
2014-09-20 08:19:00,78.0,74.5,29.90,West,279,4.0,11.0,89,0.00,,---,0.29,VWS V15.00,2014-09-20 12:19:00,
2014-09-20 08:22:00,78.0,74.2,29.90,WNW,283,6.0,11.0,88,0.00,,---,0.29,VWS V15.00,2014-09-20 12:22:00,
2014-09-20 08:23:00,78.0,74.2,29.90,WNW,288,7.0,11.0,88,0.00,,---,0.29,VWS V15.00,2014-09-20 12:23:00,
2014-09-20 08:24:00,77.9,74.1,29.90,WNW,292,3.0,6.0,88,0.00,,---,0.29,VWS V15.00,2014-09-20 12:24:00,
2014-09-20 08:27:00,77.8,74.0,29.90,WNW,292,7.0,11.0,88,0.00,,---,0.29,VWS V15.00,2014-09-20 12:27:00,
2014-09-20 08:28:00,77.7,73.9,29.90,West,280,6.0,11.0,88,0.00,,---,0.29,VWS V15.00,2014-09-20 12:28:00,
2014-09-20 08:29:00,77.6,73.8,29.90,West,278,6.0,11.0,88,0.00,,---,0.29,VWS V15.00,2014-09-20 12:29:00,
2014-09-20 08:30:00,77.6,73.8,29.90,West,277,6.0,11.0,88,0.00,,---,0.29,VWS V15.00,2014-09-20 12:30:00,
2014-09-20 08:33:00,77.5,74.0,29.90,West,281,4.0,11.0,89,0.00,,---,0.29,VWS V15.00,2014-09-20 12:33:00,
2014-09-20 08:34:00,77.5,74.0,29.90,West,281,3.0,3.0,89,0.00,,---,0.29,VWS V15.00,2014-09-20 12:34:00,
2014-09-20 08:35:00,77.5,74.0,29.90,West,281,4.0,6.0,89,0.00,,---,0.29,VWS V15.00,2014-09-20 12:35:00,
2014-09-20 08:38:00,77.3,73.8,29.90,WNW,291,8.0,11.0,89,0.00,,---,0.29,VWS V15.00,2014-09-20 12:38:00,
2014-09-20 08:39:00,77.3,73.8,29.91,WNW,291,4.0,8.0,89,0.00,,---,0.29,VWS V15.00,2014-09-20 12:39:00,
2014-09-20 08:40:00,77.3,73.8,29.91,WNW,290,5.0,9.0,89,0.00,,---,0.29,VWS V15.00,2014-09-20 12:40:00,
2014-09-20 08:41:00,77.2,73.7,29.91,WNW,290,5.0,9.0,89,0.00,,---,0.29,VWS V15.00,2014-09-20 12:41:00,
2014-09-20 08:44:00,77.1,73.6,29.91,WNW,292,5.0,7.0,89,0.00,,---,0.29,VWS V15.00,2014-09-20 12:44:00,
2014-09-20 08:45:00,77.0,73.5,29.91,WNW,294,7.0,9.0,89,0.00,,---,0.29,VWS V15.00,2014-09-20 12:45:00,
2014-09-20 08:46:00,77.0,73.5,29.91,WNW,294,3.0,9.0,89,0.00,,---,0.29,VWS V15.00,2014-09-20 12:46:00,
2014-09-20 08:47:00,76.9,73.4,29.91,WNW,294,5.0,9.0,89,0.00,,---,0.29,VWS V15.00,2014-09-20 12:47:00,
2014-09-20 08:51:00,76.8,73.0,29.91,WNW,296,8.0,11.0,88,0.00,,---,0.29,VWS V15.00,2014-09-20 12:51:00,
2014-09-20 08:52:00,76.8,73.0,29.91,WNW,296,6.0,11.0,88,0.00,,---,0.29,VWS V15.00,2014-09-20 12:52:00,
2014-09-20 08:53:00,76.7,72.9,29.91,WNW,296,2.0,11.0,88,0.00,,---,0.29,VWS V15.00,2014-09-20 12:53:00,
2014-09-20 08:57:00,76.6,72.8,29.91,WNW,289,5.0,9.0,88,0.00,,---,0.29,VWS V15.00,2014-09-20 12:57:00,
2014-09-20 08:59:00,76.6,72.8,29.91,WNW,292,5.0,10.0,88,0.00,,---,0.29,VWS V15.00,2014-09-20 12:59:00,
2014-09-20 09:01:00,76.6,72.8,29.91,WNW,300,10.0,15.0,88,0.00,,---,0.29,VWS V15.00,2014-09-20 13:01:00,
2014-09-20 09:02:00,76.6,72.4,29.91,WNW,295,9.0,15.0,87,0.00,,---,0.29,VWS V15.00,2014-09-20 13:02:00,
2014-09-20 09:03:00,76.6,72.4,29.91,WNW,291,8.0,15.0,87,0.00,,---,0.29,VWS V15.00,2014-09-20 13:03:00,
2014-09-20 09:05:00,76.6,72.8,29.91,WNW,292,8.0,11.0,88,0.00,,---,0.29,VWS V15.00,2014-09-20 13:05:00,
2014-09-20 09:06:00,76.6,72.4,29.92,WNW,293,8.0,11.0,87,0.00,,---,0.29,VWS V15.00,2014-09-20 13:06:00,
2014-09-20 09:08:00,76.7,72.5,29.92,WNW,290,7.0,13.0,87,0.00,,---,0.29,VWS V15.00,2014-09-20 13:08:00,
2014-09-20 09:10:00,76.8,72.6,29.91,WNW,298,6.0,8.0,87,0.00,,---,0.29,VWS V15.00,2014-09-20 13:10:00,
2014-09-20 09:12:00,76.8,72.6,29.92,WNW,298,7.0,9.0,87,0.00,,---,0.29,VWS V15.00,2014-09-20 13:12:00,
2014-09-20 09:13:00,76.8,72.6,29.92,WNW,298,4.0,9.0,87,0.00,,---,0.29,VWS V15.00,2014-09-20 13:13:00,
2014-09-20 09:14:00,76.8,72.6,29.92,WNW,299,10.0,10.0,87,0.00,,---,0.29,VWS V15.00,2014-09-20 13:14:00,
2014-09-20 09:18:00,76.8,72.6,29.92,WNW,294,3.0,10.0,87,0.00,,---,0.29,VWS V15.00,2014-09-20 13:18:00,
2014-09-20 09:19:00,76.9,72.7,29.92,WNW,294,5.0,7.0,87,0.00,,---,0.29,VWS V15.00,2014-09-20 13:19:00,
2014-09-20 09:23:00,76.7,72.5,29.92,WNW,298,5.0,11.0,87,0.00,,---,0.29,VWS V15.00,2014-09-20 13:23:00,
2014-09-20 09:24:00,76.7,72.5,29.92,WNW,298,6.0,8.0,87,0.00,,---,0.29,VWS V15.00,2014-09-20 13:24:00,
2014-09-20 09:28:00,76.7,72.5,29.92,WNW,300,7.0,9.0,87,0.00,,---,0.29,VWS V15.00,2014-09-20 13:28:00,
2014-09-20 09:29:00,76.6,72.4,29.92,WNW,286,10.0,10.0,87,0.00,,---,0.29,VWS V15.00,2014-09-20 13:29:00,
2014-09-20 09:30:00,76.6,72.4,29.92,WNW,286,5.0,10.0,87,0.00,,---,0.29,VWS V15.00,2014-09-20 13:30:00,
2014-09-20 09:34:00,76.7,72.5,29.92,WNW,292,5.0,6.0,87,0.00,,---,0.29,VWS V15.00,2014-09-20 13:34:00,
2014-09-20 09:35:00,76.7,72.5,29.93,WNW,292,3.0,7.0,87,0.00,,---,0.29,VWS V15.00,2014-09-20 13:35:00,
2014-09-20 09:39:00,76.7,72.9,29.93,WNW,292,6.0,7.0,88,0.00,,---,0.29,VWS V15.00,2014-09-20 13:39:00,
2014-09-20 09:40:00,76.7,72.9,29.93,WNW,292,3.0,7.0,88,0.00,,---,0.29,VWS V15.00,2014-09-20 13:40:00,
2014-09-20 09:41:00,76.7,72.9,29.93,WNW,292,4.0,7.0,88,0.00,,---,0.29,VWS V15.00,2014-09-20 13:41:00,
2014-09-20 09:44:00,76.8,73.3,29.93,WNW,294,4.0,6.0,89,0.00,,---,0.29,VWS V15.00,2014-09-20 13:44:00,
2014-09-20 09:45:00,76.7,73.2,29.93,WNW,294,5.0,6.0,89,0.00,,---,0.29,VWS V15.00,2014-09-20 13:45:00,
2014-09-20 09:46:00,76.7,72.9,29.93,WNW,294,6.0,7.0,88,0.00,,---,0.29,VWS V15.00,2014-09-20 13:46:00,
2014-09-20 09:50:00,76.6,73.1,29.93,WNW,299,7.0,8.0,89,0.00,,---,0.29,VWS V15.00,2014-09-20 13:50:00,
2014-09-20 09:52:00,76.5,73.0,29.93,WNW,299,6.0,8.0,89,0.00,,---,0.29,VWS V15.00,2014-09-20 13:52:00,
2014-09-20 09:53:00,76.5,73.0,29.93,WNW,299,6.0,8.0,89,0.00,,---,0.29,VWS V15.00,2014-09-20 13:53:00,
2014-09-20 09:56:00,76.5,73.3,29.93,WNW,298,6.0,8.0,90,0.00,,---,0.29,VWS V15.00,2014-09-20 13:56:00,
2014-09-20 09:57:00,76.5,73.3,29.93,WNW,298,3.0,8.0,90,0.00,,---,0.29,VWS V15.00,2014-09-20 13:57:00,
2014-09-20 09:58:00,76.4,72.9,29.93,WNW,300,7.0,10.0,89,0.00,,---,0.29,VWS V15.00,2014-09-20 13:58:00,
2014-09-20 10:01:00,76.3,73.2,29.93,WNW,300,4.0,9.0,90,0.00,,---,0.29,VWS V15.00,2014-09-20 14:01:00,
2014-09-20 10:03:00,76.4,73.2,29.93,WNW,300,2.0,9.0,90,0.00,,---,0.29,VWS V15.00,2014-09-20 14:03:00,
2014-09-20 10:06:00,76.4,73.6,29.93,WNW,300,3.0,6.0,91,0.00,,---,0.29,VWS V15.00,2014-09-20 14:06:00,
2014-09-20 10:07:00,76.4,73.6,29.93,WNW,300,2.0,6.0,91,0.00,,---,0.29,VWS V15.00,2014-09-20 14:07:00,
2014-09-20 10:09:00,76.4,73.2,29.93,WNW,300,3.0,5.0,90,0.00,,---,0.29,VWS V15.00,2014-09-20 14:09:00,
2014-09-20 10:10:00,76.4,73.6,29.93,WNW,300,5.0,5.0,91,0.00,,---,0.29,VWS V15.00,2014-09-20 14:10:00,
2014-09-20 10:11:00,76.4,73.2,29.93,WNW,300,4.0,8.0,90,0.00,,---,0.29,VWS V15.00,2014-09-20 14:11:00,
2014-09-20 10:12:00,76.4,73.2,29.93,WNW,300,5.0,8.0,90,0.00,,---,0.29,VWS V15.00,2014-09-20 14:12:00,
2014-09-20 10:15:00,76.4,73.2,29.93,WNW,300,4.0,7.0,90,0.00,,---,0.29,VWS V15.00,2014-09-20 14:15:00,
2014-09-20 10:17:00,76.4,73.2,29.93,WNW,300,4.0,7.0,90,0.00,,---,0.29,VWS V15.00,2014-09-20 14:17:00,
2014-09-20 10:20:00,76.4,73.2,29.93,WNW,300,2.0,5.0,90,0.00,,---,0.29,VWS V15.00,2014-09-20 14:20:00,
2014-09-20 10:23:00,76.4,73.6,29.93,WNW,300,3.0,5.0,91,0.00,,---,0.29,VWS V15.00,2014-09-20 14:23:00,
2014-09-20 10:26:00,76.5,73.7,29.93,WNW,300,5.0,6.0,91,0.00,,---,0.29,VWS V15.00,2014-09-20 14:26:00,
2014-09-20 10:28:00,76.5,73.3,29.93,WNW,300,4.0,7.0,90,0.00,,---,0.29,VWS V15.00,2014-09-20 14:28:00,
2014-09-20 10:29:00,76.5,73.3,29.93,WNW,300,1.0,2.0,90,0.00,,---,0.29,VWS V15.00,2014-09-20 14:29:00,
2014-09-20 10:31:00,76.5,73.3,29.93,WNW,300,3.0,4.0,90,0.00,,---,0.29,VWS V15.00,2014-09-20 14:31:00,
2014-09-20 10:33:00,76.6,73.4,29.93,WNW,300,2.0,4.0,90,0.00,,---,0.29,VWS V15.00,2014-09-20 14:33:00,
2014-09-20 10:34:00,76.6,73.4,29.93,WNW,300,1.0,4.0,90,0.00,,---,0.29,VWS V15.00,2014-09-20 14:34:00,
2014-09-20 10:35:00,76.6,73.4,29.93,WNW,300,2.0,4.0,90,0.00,,---,0.29,VWS V15.00,2014-09-20 14:35:00,
2014-09-20 10:36:00,76.6,73.4,29.93,WNW,300,0.0,4.0,90,0.00,,---,0.29,VWS V15.00,2014-09-20 14:36:00,
2014-09-20 10:38:00,76.7,73.6,29.93,WNW,300,3.0,4.0,90,0.00,,---,0.29,VWS V15.00,2014-09-20 14:38:00,
2014-09-20 10:40:00,76.7,73.2,29.93,WNW,300,3.0,5.0,89,0.00,,---,0.29,VWS V15.00,2014-09-20 14:40:00,
2014-09-20 10:42:00,76.7,73.2,29.93,WNW,300,2.0,5.0,89,0.00,,---,0.29,VWS V15.00,2014-09-20 14:42:00,
2014-09-20 10:44:00,76.8,73.3,29.93,WNW,300,0.0,1.0,89,0.00,,---,0.29,VWS V15.00,2014-09-20 14:44:00,
2014-09-20 10:45:00,76.8,73.3,29.93,WNW,300,0.0,3.0,89,0.00,,---,0.29,VWS V15.00,2014-09-20 14:45:00,
2014-09-20 10:46:00,76.8,73.3,29.93,WNW,300,0.0,3.0,89,0.00,,---,0.29,VWS V15.00,2014-09-20 14:46:00,
2014-09-20 10:47:00,76.9,73.4,29.93,WNW,300,3.0,3.0,89,0.00,,---,0.29,VWS V15.00,2014-09-20 14:47:00,
2014-09-20 10:50:00,77.0,73.5,29.93,WNW,300,3.0,3.0,89,0.00,,---,0.29,VWS V15.00,2014-09-20 14:50:00,
2014-09-20 10:51:00,77.0,73.5,29.93,WNW,300,0.0,3.0,89,0.00,,---,0.29,VWS V15.00,2014-09-20 14:51:00,
2014-09-20 10:52:00,77.1,73.6,29.93,WNW,300,1.0,3.0,89,0.00,,---,0.29,VWS V15.00,2014-09-20 14:52:00,
2014-09-20 10:56:00,77.3,73.8,29.93,WNW,300,0.0,4.0,89,0.00,,---,0.29,VWS V15.00,2014-09-20 14:56:00,
2014-09-20 10:57:00,77.3,73.8,29.94,WNW,300,0.0,4.0,89,0.00,,---,0.29,VWS V15.00,2014-09-20 14:57:00,
2014-09-20 10:58:00,77.4,73.9,29.94,WNW,300,0.0,4.0,89,0.00,,---,0.29,VWS V15.00,2014-09-20 14:58:00,
2014-09-20 11:02:00,77.6,73.8,29.94,WNW,300,0.0,2.0,88,0.00,,---,0.29,VWS V15.00,2014-09-20 15:02:00,
2014-09-20 11:03:00,77.6,74.1,29.93,WNW,300,0.0,2.0,89,0.00,,---,0.29,VWS V15.00,2014-09-20 15:03:00,
2014-09-20 11:05:00,77.8,74.0,29.94,WNW,300,2.0,3.0,88,0.00,,---,0.29,VWS V15.00,2014-09-20 15:05:00,
2014-09-20 11:07:00,77.8,74.3,29.94,WNW,300,0.0,3.0,89,0.00,,---,0.29,VWS V15.00,2014-09-20 15:07:00,
2014-09-20 11:08:00,77.9,74.1,29.94,WNW,300,2.0,4.0,88,0.00,,---,0.29,VWS V15.00,2014-09-20 15:08:00,
2014-09-20 11:09:00,77.9,74.1,29.94,WNW,300,1.0,2.0,88,0.00,,---,0.29,VWS V15.00,2014-09-20 15:09:00,
2014-09-20 11:12:00,78.0,74.2,29.94,WNW,300,3.0,3.0,88,0.00,,---,0.29,VWS V15.00,2014-09-20 15:12:00,
2014-09-20 11:13:00,78.0,73.8,29.94,WNW,300,4.0,4.0,87,0.00,,---,0.29,VWS V15.00,2014-09-20 15:13:00,
2014-09-20 11:14:00,78.0,73.8,29.94,WNW,300,3.0,4.0,87,0.00,,---,0.29,VWS V15.00,2014-09-20 15:14:00,
2014-09-20 11:16:00,78.0,73.8,29.94,WNW,300,2.0,5.0,87,0.00,,---,0.29,VWS V15.00,2014-09-20 15:16:00,
2014-09-20 11:17:00,78.0,74.2,29.94,WNW,300,2.0,5.0,88,0.00,,---,0.29,VWS V15.00,2014-09-20 15:17:00,
2014-09-20 11:18:00,78.0,74.2,29.94,WNW,300,1.0,5.0,88,0.00,,---,0.29,VWS V15.00,2014-09-20 15:18:00,
2014-09-20 11:20:00,78.1,74.3,29.94,WNW,300,1.0,2.0,88,0.00,,---,0.29,VWS V15.00,2014-09-20 15:20:00,
2014-09-20 11:22:00,78.1,74.3,29.94,WNW,300,1.0,4.0,88,0.00,,---,0.29,VWS V15.00,2014-09-20 15:22:00,
2014-09-20 11:23:00,78.1,73.9,29.94,WNW,300,1.0,4.0,87,0.00,,---,0.29,VWS V15.00,2014-09-20 15:23:00,
2014-09-20 11:25:00,78.1,73.9,29.94,WNW,300,0.0,2.0,87,0.00,,---,0.29,VWS V15.00,2014-09-20 15:25:00,